Terminal Aerodrome Forecast
Issued by NWS

Home | Current Version | Previous Version | Text Only | Print | Product List | Glossary On
Versions: 1 2 3 4 5 6 7 8 9 10 11 12 13 14 15 16 17 18 19
614
FTUS46 KMTR 262348
TAFSFO
TAF
KSFO 262348Z 2700/2806 29016KT P6SM SCT200
     FM270400 29012KT 6SM HZ FEW007 SCT200
     FM272100 30016KT P6SM FEW150 SCT200
     FM280400 29010KT P6SM FEW150 SCT200=

USA.gov is the U.S. government's official web portal to all federal, state and local government web resources and services.